createdAt,value
2022-11-24T00:01:30.730Z,98250.31
2022-11-24T00:04:03.573Z,98257.41
2022-11-24T00:06:32.215Z,98251.81
2022-11-24T00:08:59.471Z,98250.56
2022-11-24T00:11:29.369Z,98248.53
2022-11-24T00:13:57.660Z,98252.13
2022-11-24T00:16:30.967Z,98253.97
2022-11-24T00:18:59.198Z,98251.78
2022-11-24T00:21:29.566Z,98244.19
2022-11-24T00:23:57.375Z,98243.94
2022-11-24T00:26:27.583Z,98248.06
2022-11-24T00:28:56.681Z,98252.34
2022-11-24T00:31:29.028Z,98258.91
2022-11-24T00:33:59.088Z,98263.34
2022-11-24T00:36:28.770Z,98264.09
2022-11-24T00:39:01.476Z,98257.59
2022-11-24T00:41:29.764Z,98267.22
2022-11-24T00:43:57.318Z,98263.22
2022-11-24T00:51:50.986Z,98262.66
2022-11-24T00:57:19.619Z,98274.84
2022-11-24T00:59:47.107Z,98273.81
2022-11-24T01:02:14.620Z,98270.72
2022-11-24T01:05:03.759Z,98288.22
2022-11-24T01:10:13.836Z,98279.94
2022-11-24T01:12:41.213Z,98274.78
2022-11-24T01:15:10.081Z,98283.34
2022-11-24T01:17:39.562Z,98274.91
2022-11-24T01:20:19.450Z,98291.66
2022-11-24T01:23:04.423Z,98287.47
2022-11-24T01:25:33.106Z,98285.78
2022-11-24T01:28:01.373Z,98290.13
2022-11-24T01:30:31.445Z,98296.13
2022-11-24T01:32:58.484Z,98310.19
2022-11-24T01:38:26.508Z,98308.09
2022-11-24T01:41:10.501Z,98314.22
2022-11-24T01:43:37.657Z,98315.78
2022-11-24T01:46:16.758Z,98323.84
2022-11-24T01:48:52.100Z,98318.66
2022-11-24T01:51:28.738Z,98325.75
2022-11-24T01:54:24.706Z,98314.75
2022-11-24T01:56:56.179Z,98326.16
2022-11-24T01:59:39.473Z,98326.88
2022-11-24T02:02:08.046Z,98320.63
2022-11-24T02:04:37.162Z,98327.72
2022-11-24T02:07:06.727Z,98324.78
2022-11-24T02:12:26.881Z,98333.16
2022-11-24T02:14:57.112Z,98332.03
2022-11-24T02:17:23.915Z,98330.06
2022-11-24T02:20:08.471Z,98328.47
2022-11-24T02:22:44.537Z,98325.75
2022-11-24T02:25:30.559Z,98335.22
2022-11-24T02:28:00.598Z,98331.41
2022-11-24T02:30:27.889Z,98329.28
2022-11-24T02:32:56.332Z,98333.84
2022-11-24T02:35:25.649Z,98333.13
2022-11-24T02:41:01.311Z,98330.84
2022-11-24T02:43:32.727Z,98337.38
2022-11-24T02:45:59.975Z,98342.56
2022-11-24T02:48:28.460Z,98340.97
2022-11-24T02:50:55.497Z,98342.81
2022-11-24T02:53:22.919Z,98345.28
2022-11-24T02:58:38.540Z,98344.84
2022-11-24T03:04:13.165Z,98350.56
2022-11-24T03:12:25.564Z,98353.38
2022-11-24T03:18:29.894Z,98356.03
2022-11-24T03:21:00.032Z,98350.41
2022-11-24T03:23:26.852Z,98348.13
2022-11-24T03:25:54.626Z,98352.25
2022-11-24T03:28:21.458Z,98352.66
2022-11-24T03:30:49.219Z,98352.66
2022-11-24T03:33:16.094Z,98357.06
2022-11-24T03:35:42.778Z,98358.03
2022-11-24T03:38:10.613Z,98364.13
2022-11-24T03:40:37.362Z,98370.06
2022-11-24T03:43:04.084Z,98367.53
2022-11-24T03:45:46.019Z,98361.88
2022-11-24T03:51:05.929Z,98366.97
2022-11-24T03:53:45.331Z,98366.41
2022-11-24T03:56:16.880Z,98370.34
2022-11-24T03:58:48.452Z,98382.28
2022-11-24T04:01:16.623Z,98376.00
2022-11-24T04:03:53.509Z,98381.34
2022-11-24T04:06:25.037Z,98383.69
2022-11-24T04:08:52.149Z,98380.31
2022-11-24T04:11:37.967Z,98383.34
2022-11-24T04:14:13.606Z,98386.81
2022-11-24T04:16:41.444Z,98389.63
2022-11-24T04:19:08.630Z,98392.47
2022-11-24T04:21:35.483Z,98386.53
2022-11-24T04:24:03.813Z,98394.78
2022-11-24T04:26:33.513Z,98390.69
2022-11-24T04:29:00.170Z,98395.66
2022-11-24T04:31:27.196Z,98396.84
2022-11-24T04:33:54.978Z,98402.50
2022-11-24T04:36:24.053Z,98408.91
2022-11-24T04:39:25.775Z,98410.03
2022-11-24T04:41:41.560Z,98413.53
2022-11-24T04:44:10.531Z,98422.84
2022-11-24T04:46:37.204Z,98422.44
2022-11-24T04:49:03.958Z,98430.25
2022-11-24T04:51:30.670Z,98436.19
2022-11-24T04:53:57.440Z,98428.19
2022-11-24T04:56:24.132Z,98432.31
2022-11-24T04:58:50.736Z,98431.94
2022-11-24T05:01:17.483Z,98439.38
2022-11-24T05:03:44.350Z,98438.59
2022-11-24T05:06:11.091Z,98438.22
2022-11-24T05:08:37.893Z,98443.97
2022-11-24T05:11:06.573Z,98441.78
2022-11-24T05:13:33.382Z,98443.94
2022-11-24T05:16:01.254Z,98446.72
2022-11-24T05:18:28.820Z,98453.22
2022-11-24T05:20:55.757Z,98465.22
2022-11-24T05:23:22.330Z,98460.00
2022-11-24T05:25:49.082Z,98466.84
2022-11-24T05:28:16.081Z,98467.59
2022-11-24T05:30:42.819Z,98474.47
2022-11-24T05:33:19.164Z,98474.41
2022-11-24T05:35:47.417Z,98472.63
2022-11-24T05:38:14.152Z,98476.75
2022-11-24T05:40:41.044Z,98474.03
2022-11-24T05:43:15.603Z,98473.66
2022-11-24T05:45:43.019Z,98476.31
2022-11-24T05:48:15.123Z,98477.16
2022-11-24T05:50:42.388Z,98473.19
2022-11-24T05:53:12.115Z,98472.66
2022-11-24T05:55:40.439Z,98483.66
2022-11-24T05:58:10.195Z,98489.44
2022-11-24T06:00:37.165Z,98494.19
2022-11-24T06:03:04.174Z,98490.00
2022-11-24T06:05:31.162Z,98499.84
2022-11-24T06:08:00.140Z,98500.88
2022-11-24T06:10:27.272Z,98496.44
2022-11-24T06:12:53.979Z,98511.41
2022-11-24T06:15:21.364Z,98508.47
2022-11-24T06:17:55.834Z,98512.78
2022-11-24T06:20:28.328Z,98520.28
2022-11-24T06:23:00.090Z,98522.59
2022-11-24T06:25:27.480Z,98522.53
2022-11-24T06:27:56.236Z,98525.41
2022-11-24T06:30:25.456Z,98528.44
2022-11-24T06:32:59.469Z,98534.19
2022-11-24T06:35:28.438Z,98527.34
2022-11-24T06:37:55.048Z,98531.84
2022-11-24T06:40:21.822Z,98524.78
2022-11-24T06:42:52.274Z,98524.91
2022-11-24T06:45:22.591Z,98541.03
2022-11-24T06:47:49.464Z,98547.47
2022-11-24T06:50:16.728Z,98547.25
2022-11-24T06:52:46.989Z,98541.88
2022-11-24T06:55:13.656Z,98551.28
2022-11-24T06:57:41.804Z,98552.44
2022-11-24T07:00:09.045Z,98549.28
2022-11-24T07:02:38.799Z,98555.63
2022-11-24T07:05:08.127Z,98557.72
2022-11-24T07:07:34.825Z,98559.13
2022-11-24T07:10:01.513Z,98564.94
2022-11-24T07:12:29.261Z,98568.41
2022-11-24T07:14:56.476Z,98570.53
2022-11-24T07:17:25.618Z,98571.28
2022-11-24T07:19:55.261Z,98569.69
2022-11-24T07:22:21.936Z,98574.81
2022-11-24T07:24:50.826Z,98577.59
2022-11-24T07:27:17.532Z,98577.69
2022-11-24T07:29:44.179Z,98573.91
2022-11-24T07:32:10.874Z,98576.06
2022-11-24T07:34:37.743Z,98582.44
2022-11-24T07:37:04.400Z,98579.88
2022-11-24T07:39:31.203Z,98587.72
2022-11-24T07:42:00.893Z,98592.94
2022-11-24T07:44:27.663Z,98591.00
2022-11-24T07:46:54.443Z,98597.91
2022-11-24T07:49:21.182Z,98599.13
2022-11-24T07:51:48.013Z,98604.53
2022-11-24T07:54:15.473Z,98600.25
2022-11-24T07:56:42.106Z,98600.78
2022-11-24T07:59:08.913Z,98603.03
2022-11-24T08:01:35.721Z,98592.06
2022-11-24T08:04:02.727Z,98598.34
2022-11-24T08:06:36.228Z,98599.81
2022-11-24T08:09:06.520Z,98604.84
2022-11-24T08:11:59.387Z,98601.25
2022-11-24T08:14:51.746Z,98604.97
2022-11-24T08:17:19.730Z,98597.81
2022-11-24T08:19:46.524Z,98602.53
2022-11-24T08:22:36.844Z,98601.53
2022-11-24T08:25:03.727Z,98602.91
2022-11-24T08:27:37.067Z,98608.66
2022-11-24T08:30:11.772Z,98602.50
2022-11-24T08:32:41.087Z,98605.16
2022-11-24T08:35:14.021Z,98607.09
2022-11-24T08:37:41.143Z,98608.50
2022-11-24T08:40:08.338Z,98610.22
2022-11-24T08:42:34.997Z,98606.44
2022-11-24T08:45:17.543Z,98612.75
2022-11-24T08:47:52.548Z,98610.50
2022-11-24T08:50:19.277Z,98616.91
2022-11-24T08:52:54.560Z,98624.66
2022-11-24T08:55:24.101Z,98626.56
2022-11-24T08:57:50.727Z,98620.53
2022-11-24T09:00:22.518Z,98618.13
2022-11-24T09:02:55.579Z,98625.44
2022-11-24T09:05:50.071Z,98628.09
2022-11-24T09:08:09.088Z,98622.28
2022-11-24T09:10:36.455Z,98627.94
2022-11-24T09:13:03.483Z,98631.56
2022-11-24T09:15:30.260Z,98631.06
2022-11-24T09:17:57.456Z,98636.59
2022-11-24T09:20:24.146Z,98636.44
2022-11-24T09:22:51.405Z,98631.63
2022-11-24T09:29:24.119Z,98638.75
2022-11-24T09:34:56.795Z,98637.44
2022-11-24T09:40:39.338Z,98637.22
2022-11-24T10:01:39.715Z,98656.16
2022-11-24T10:08:33.352Z,98655.09
2022-11-24T10:11:25.976Z,98655.13
2022-11-24T10:18:35.657Z,98645.50
2022-11-24T10:27:58.240Z,98650.94
2022-11-24T10:40:58.788Z,98661.78
2022-11-24T10:57:31.978Z,98652.78
2022-11-24T11:07:24.355Z,98657.81
2022-11-24T11:10:21.812Z,98656.59
2022-11-24T11:12:49.063Z,98657.13
2022-11-24T11:15:32.354Z,98652.31
2022-11-24T11:18:14.791Z,98664.88
2022-11-24T11:20:58.084Z,98658.56
2022-11-24T11:26:40.539Z,98657.81
2022-11-24T11:41:41.937Z,98648.25
2022-11-24T11:44:41.427Z,98653.72
2022-11-24T11:56:54.260Z,98664.25
2022-11-24T12:00:07.519Z,98674.63
2022-11-24T12:03:29.827Z,98672.09
2022-11-24T12:13:28.676Z,98673.72
2022-11-24T12:19:24.907Z,98671.22
2022-11-24T12:22:59.281Z,98678.25
2022-11-24T12:25:40.991Z,98682.75
2022-11-24T12:36:39.399Z,98691.78
2022-11-24T12:43:25.920Z,98693.47
2022-11-24T12:46:17.690Z,98690.34
2022-11-24T12:52:37.439Z,98696.44
2022-11-24T13:08:39.420Z,98702.59
2022-11-24T13:11:52.512Z,98704.69
2022-11-24T13:14:22.837Z,98697.81
2022-11-24T13:17:13.327Z,98706.38
2022-11-24T13:19:37.645Z,98709.44
2022-11-24T13:22:07.349Z,98704.81
2022-11-24T13:24:37.034Z,98707.63
2022-11-24T13:27:16.455Z,98706.19
2022-11-24T13:41:50.583Z,98711.41
2022-11-24T13:44:23.491Z,98728.41
2022-11-24T13:50:58.655Z,98727.50
2022-11-24T13:53:25.199Z,98730.41
2022-11-24T13:55:59.347Z,98733.59
2022-11-24T13:58:46.241Z,98734.22
2022-11-24T14:02:35.981Z,98723.78
2022-11-24T14:05:03.029Z,98732.31
2022-11-24T14:07:31.600Z,98737.63
2022-11-24T14:09:58.825Z,98745.47
2022-11-24T14:12:28.738Z,98739.44
2022-11-24T14:15:26.169Z,98743.75
2022-11-24T14:17:53.153Z,98743.88
2022-11-24T14:20:34.303Z,98751.63
2022-11-24T14:23:03.834Z,98757.84
2022-11-24T14:25:56.744Z,98758.16
2022-11-24T14:28:29.720Z,98754.06
2022-11-24T14:34:11.496Z,98765.66
2022-11-24T14:36:39.690Z,98769.63
2022-11-24T14:39:07.241Z,98770.63
2022-11-24T14:41:34.438Z,98771.69
2022-11-24T14:44:20.361Z,98775.13
2022-11-24T14:46:50.274Z,98776.72
2022-11-24T14:49:22.424Z,98781.94
2022-11-24T14:51:56.665Z,98780.97
2022-11-24T14:54:24.730Z,98792.72
2022-11-24T14:57:06.616Z,98785.25
2022-11-24T14:59:36.407Z,98794.88
2022-11-24T15:02:03.992Z,98798.69
2022-11-24T15:05:00.848Z,98801.34
2022-11-24T15:07:26.432Z,98807.22
2022-11-24T15:13:24.205Z,98801.25
2022-11-24T15:19:35.816Z,98813.44
2022-11-24T15:22:28.334Z,98810.41
2022-11-24T15:33:49.429Z,98823.59
2022-11-24T15:39:27.544Z,98826.28
2022-11-24T15:41:59.461Z,98833.31
2022-11-24T15:44:26.787Z,98829.53
2022-11-24T15:47:14.436Z,98828.53
2022-11-24T15:49:42.878Z,98835.06
2022-11-24T15:52:21.185Z,98836.28
2022-11-24T15:55:04.600Z,98832.09
2022-11-24T15:57:35.702Z,98843.50
2022-11-24T16:02:44.823Z,98840.84
2022-11-24T16:08:17.277Z,98845.34
2022-11-24T16:11:33.829Z,98842.84
2022-11-24T16:23:20.819Z,98855.31
2022-11-24T16:29:08.753Z,98861.16
2022-11-24T16:31:53.072Z,98862.38
2022-11-24T16:34:48.159Z,98867.91
2022-11-24T16:37:18.373Z,98868.16
2022-11-24T16:51:01.846Z,98871.09
2022-11-24T16:53:36.223Z,98874.59
2022-11-24T16:56:17.658Z,98870.19
2022-11-24T16:58:49.086Z,98877.38
2022-11-24T17:04:01.675Z,98885.13
2022-11-24T17:06:30.822Z,98883.19
2022-11-24T17:09:20.433Z,98887.66
2022-11-24T17:12:06.239Z,98883.28
2022-11-24T17:15:09.420Z,98883.63
2022-11-24T17:18:01.219Z,98889.31
2022-11-24T17:20:28.044Z,98887.28
2022-11-24T17:22:59.034Z,98890.72
2022-11-24T17:25:48.223Z,98896.53
2022-11-24T17:28:19.047Z,98903.94
2022-11-24T17:30:47.495Z,98903.19
2022-11-24T17:36:27.803Z,98906.72
2022-11-24T17:38:59.273Z,98907.31
2022-11-24T17:41:25.890Z,98901.34
2022-11-24T17:43:55.488Z,98912.22
2022-11-24T17:46:23.155Z,98914.91
2022-11-24T17:48:49.834Z,98915.41
2022-11-24T17:51:18.851Z,98924.50
2022-11-24T17:53:49.207Z,98924.72
2022-11-24T17:56:18.354Z,98929.78
2022-11-24T17:58:44.960Z,98932.59
2022-11-24T18:01:12.905Z,98931.50
2022-11-24T18:03:40.479Z,98932.22
2022-11-24T18:06:09.193Z,98928.94
2022-11-24T18:08:37.432Z,98926.41
2022-11-24T18:11:06.243Z,98934.41
2022-11-24T18:13:54.891Z,98921.56
2022-11-24T18:16:19.713Z,98936.56
2022-11-24T18:18:50.310Z,98938.50
2022-11-24T18:21:17.736Z,98937.03
2022-11-24T18:23:44.832Z,98939.31
2022-11-24T18:26:14.849Z,98943.78
2022-11-24T18:28:44.070Z,98943.16
2022-11-24T18:31:16.108Z,98947.16
2022-11-24T18:33:43.796Z,98949.03
2022-11-24T18:36:14.029Z,98951.31
2022-11-24T18:38:40.815Z,98947.47
2022-11-24T18:41:07.769Z,98952.03
2022-11-24T18:43:37.470Z,98956.53
2022-11-24T18:46:10.195Z,98958.59
2022-11-24T18:48:36.855Z,98950.34
2022-11-24T18:51:03.506Z,98944.88
2022-11-24T18:53:30.404Z,98948.94
2022-11-24T18:56:02.600Z,98951.50
2022-11-24T18:58:31.277Z,98950.13
2022-11-24T19:01:18.990Z,98948.53
2022-11-24T19:03:49.035Z,98954.72
2022-11-24T19:06:19.008Z,98955.69
2022-11-24T19:08:46.362Z,98952.06
2022-11-24T19:11:20.665Z,98949.16
2022-11-24T19:13:48.731Z,98950.41
2022-11-24T19:16:17.036Z,98948.13
2022-11-24T19:18:46.515Z,98956.97
2022-11-24T19:21:18.097Z,98947.53
2022-11-24T19:23:45.585Z,98959.06
2022-11-24T19:26:12.185Z,98965.44
2022-11-24T19:28:38.707Z,98959.47
2022-11-24T19:31:11.695Z,98967.66
2022-11-24T19:33:39.030Z,98970.03
2022-11-24T19:36:11.993Z,98974.66
2022-11-24T19:38:39.397Z,98967.03
2022-11-24T19:41:08.562Z,98961.41
2022-11-24T19:43:35.621Z,98970.59
2022-11-24T19:46:04.487Z,98974.81
2022-11-24T19:48:32.995Z,98972.34
2022-11-24T19:51:04.570Z,98976.94
2022-11-24T19:53:31.525Z,98984.69
2022-11-24T19:56:09.419Z,98985.06
2022-11-24T19:58:36.986Z,98978.84
2022-11-24T20:01:31.173Z,98986.28
2022-11-24T20:04:04.362Z,98985.00
2022-11-24T20:06:33.670Z,98988.16
2022-11-24T20:09:00.975Z,98992.31
2022-11-24T20:11:28.837Z,98991.94
2022-11-24T20:13:56.123Z,98989.88
2022-11-24T20:16:29.497Z,99003.47
2022-11-24T20:18:58.449Z,99008.63
2022-11-24T20:21:33.039Z,99007.69
2022-11-24T20:24:02.555Z,99008.88
2022-11-24T20:26:32.203Z,99012.97
2022-11-24T20:29:00.276Z,99012.16
2022-11-24T20:31:30.492Z,99017.13
2022-11-24T20:33:57.552Z,99023.19
2022-11-24T20:36:27.172Z,99016.53
2022-11-24T20:38:54.201Z,99014.50
2022-11-24T20:41:29.512Z,99027.44
2022-11-24T20:43:59.705Z,99029.97
2022-11-24T20:46:29.694Z,99023.88
2022-11-24T20:48:56.830Z,99025.84
2022-11-24T20:51:29.359Z,99028.56
2022-11-24T20:53:58.915Z,99033.69
2022-11-24T20:56:31.356Z,99035.00
2022-11-24T20:58:58.585Z,99032.44
2022-11-24T21:01:31.118Z,99037.91
2022-11-24T21:03:59.244Z,99038.63
2022-11-24T21:06:28.087Z,99039.31
2022-11-24T21:09:00.474Z,99040.16
2022-11-24T21:11:30.332Z,99044.19
2022-11-24T21:13:57.225Z,99045.50
2022-11-24T21:16:30.043Z,99050.47
2022-11-24T21:18:59.844Z,99055.66
2022-11-24T21:21:33.367Z,99057.22
2022-11-24T21:24:09.552Z,99058.09
2022-11-24T21:26:36.992Z,99050.81
2022-11-24T21:29:04.670Z,99055.38
2022-11-24T21:31:34.297Z,99060.72
2022-11-24T21:34:00.847Z,99057.69
2022-11-24T21:36:27.516Z,99053.22
2022-11-24T21:38:56.575Z,99059.38
2022-11-24T21:41:25.036Z,99059.38
2022-11-24T21:43:57.743Z,99055.03
2022-11-24T21:46:25.139Z,99054.56
2022-11-24T21:48:51.849Z,99059.78
2022-11-24T21:51:20.786Z,99057.72
2022-11-24T21:53:47.737Z,99062.31
2022-11-24T21:56:16.989Z,99064.84
2022-11-24T21:58:54.856Z,99071.03
2022-11-24T22:01:27.971Z,99069.25
2022-11-24T22:03:55.031Z,99075.28
2022-11-24T22:06:21.906Z,99072.94
2022-11-24T22:08:49.120Z,99071.22
2022-11-24T22:11:25.373Z,99073.00
2022-11-24T22:13:52.823Z,99066.75
2022-11-24T22:16:24.344Z,99075.69
2022-11-24T22:18:51.553Z,99076.28
2022-11-24T22:21:24.216Z,99076.91
2022-11-24T22:23:52.547Z,99074.47
2022-11-24T22:26:21.465Z,99078.88
2022-11-24T22:28:48.840Z,99076.63
2022-11-24T22:31:17.588Z,99070.28
2022-11-24T22:33:44.794Z,99079.91
2022-11-24T22:36:15.931Z,99083.69
2022-11-24T22:38:43.424Z,99090.97
2022-11-24T22:41:13.155Z,99088.94
2022-11-24T22:43:41.000Z,99088.59
2022-11-24T22:46:13.833Z,99093.16
2022-11-24T22:48:41.597Z,99097.41
2022-11-24T22:51:14.399Z,99091.56
2022-11-24T22:53:41.831Z,99096.75
2022-11-24T22:56:11.003Z,99098.34
2022-11-24T22:58:39.284Z,99108.25
2022-11-24T23:01:06.461Z,99111.03
2022-11-24T23:03:36.849Z,99109.22
2022-11-24T23:06:06.223Z,99112.91
2022-11-24T23:08:34.257Z,99113.94
2022-11-24T23:11:07.582Z,99109.44
2022-11-24T23:13:34.813Z,99115.81
2022-11-24T23:16:10.554Z,99118.19
2022-11-24T23:18:37.323Z,99115.66
2022-11-24T23:21:34.575Z,99120.56
2022-11-24T23:24:02.934Z,99119.63
2022-11-24T23:26:33.112Z,99121.28
2022-11-24T23:29:00.223Z,99117.53
2022-11-24T23:31:28.713Z,99112.84
2022-11-24T23:34:03.680Z,99114.63
2022-11-24T23:36:31.489Z,99120.81
2022-11-24T23:39:03.626Z,99114.16
2022-11-24T23:41:31.549Z,99124.84
2022-11-24T23:43:58.325Z,99118.91
2022-11-24T23:46:26.791Z,99117.78
2022-11-24T23:48:55.144Z,99116.47
2022-11-24T23:51:30.045Z,99119.88
2022-11-24T23:53:57.526Z,99126.63
2022-11-24T23:56:32.244Z,99121.69
2022-11-24T23:59:00.052Z,99117.69
